Time;durP1;ratioP1;P1;durP2;ratioP2;P2;SDS_P1;SDS_P2;PMS_P1;PMS_P2;Temp;Humidity;BMP_temperature;BMP_pressure;BME280_temperature;BME280_humidity;BME280_pressure;Samples;Min_cycle;Max_cycle;Signal;HPM_P1;HPM_P2
2022/01/24 00:01:50;;;;;;;26.40;11.60;;;-7.10;99.90;;;;;;5012187;28;20900;-52
2022/01/24 00:04:16;;;;;;;28.60;11.03;;;-7.20;99.90;;;;;;5011985;28;20413;-61
2022/01/24 00:06:41;;;;;;;27.77;9.87;;;-7.20;99.90;;;;;;5012543;28;20420;-52
2022/01/24 00:09:09;;;;;;;28.33;10.83;;;-7.20;99.90;;;;;;5012380;28;20187;-54
2022/01/24 00:27:21;;;;;;;18.97;8.80;;;-7.20;99.90;;;;;;5011845;28;20404;-52
2022/01/24 00:29:47;;;;;;;23.93;10.10;;;-7.20;99.90;;;;;;5011209;28;20401;-54
2022/01/24 00:32:13;;;;;;;15.73;5.77;;;-7.20;99.90;;;;;;5012259;28;20183;-50
2022/01/24 00:34:39;;;;;;;29.13;9.47;;;-7.20;99.90;;;;;;5011766;28;20465;-56
2022/01/24 00:37:05;;;;;;;23.57;10.30;;;-7.20;99.90;;;;;;5011947;28;20440;-53
2022/01/24 00:39:31;;;;;;;20.37;10.07;;;-7.20;99.90;;;;;;5011736;28;20420;-52
2022/01/24 00:44:50;;;;;;;22.40;9.63;;;-7.30;99.90;;;;;;5011726;28;20230;-53
2022/01/24 00:47:28;;;;;;;32.97;11.80;;;-7.20;99.90;;;;;;5011806;28;20473;-53
2022/01/24 00:55:05;;;;;;;33.70;12.40;;;-7.30;99.90;;;;;;4996589;28;20318;-51
2022/01/24 00:57:31;;;;;;;17.53;6.37;;;-7.30;99.90;;;;;;4991976;28;20402;-56
2022/01/24 00:59:57;;;;;;;31.57;11.67;;;-7.30;99.90;;;;;;4992150;28;20468;-50
2022/01/24 01:02:23;;;;;;;26.23;10.13;;;-7.30;99.90;;;;;;4991947;28;20457;-51
2022/01/24 01:07:53;;;;;;;29.47;12.70;;;-7.40;99.90;;;;;;4992076;28;20452;-54
2022/01/24 01:18:22;;;;;;;29.70;11.00;;;-7.40;99.90;;;;;;4972665;28;20419;-51
2022/01/24 01:21:10;;;;;;;25.10;8.67;;;-7.40;99.90;;;;;;4972316;28;20906;-51
2022/01/24 01:23:44;;;;;;;27.57;10.17;;;-7.40;99.90;;;;;;4972067;28;20227;-54
2022/01/24 01:26:29;;;;;;;29.20;10.53;;;-7.50;99.90;;;;;;4972516;28;20423;-52
2022/01/24 01:29:03;;;;;;;25.80;9.67;;;-7.40;99.90;;;;;;4972635;28;20410;-50
2022/01/24 01:31:41;;;;;;;25.67;9.53;;;-7.40;99.90;;;;;;4972389;28;20421;-52
2022/01/24 01:52:58;;;;;;;25.40;10.73;;;-7.50;99.90;;;;;;4975960;28;20447;-56
2022/01/24 01:55:37;;;;;;;32.80;13.43;;;-7.50;99.90;;;;;;4975522;28;20598;-54
2022/01/24 01:58:11;;;;;;;34.50;11.10;;;-7.50;99.90;;;;;;4975718;28;20770;-53
2022/01/24 02:00:39;;;;;;;21.10;8.23;;;-7.60;99.90;;;;;;4975492;28;20407;-53
2022/01/24 02:03:05;;;;;;;37.90;13.10;;;-7.60;99.90;;;;;;4975293;28;20485;-53
2022/01/24 02:05:30;;;;;;;18.43;7.87;;;-7.60;99.90;;;;;;4975236;28;20895;-54
2022/01/24 02:07:56;;;;;;;25.97;9.40;;;-7.70;99.90;;;;;;4975684;28;20181;-51
2022/01/24 02:10:24;;;;;;;28.53;11.27;;;-7.70;99.90;;;;;;4975331;28;20201;-67
2022/01/24 02:12:54;;;;;;;28.07;10.80;;;-7.70;99.90;;;;;;4975231;28;20632;-50
2022/01/24 02:15:51;;;;;;;27.80;10.97;;;-7.70;99.90;;;;;;4974013;28;20454;-53
2022/01/24 02:18:19;;;;;;;21.63;9.13;;;-7.80;99.90;;;;;;4974626;28;20423;-53
2022/01/24 02:25:55;;;;;;;31.33;10.10;;;-7.80;99.90;;;;;;4975106;28;20410;-53
2022/01/24 02:28:23;;;;;;;25.67;9.63;;;-7.70;99.90;;;;;;4974834;28;20418;-54
2022/01/24 02:33:24;;;;;;;26.70;11.13;;;-7.80;99.90;;;;;;4975111;28;20464;-54
2022/01/24 02:35:50;;;;;;;17.67;7.10;;;-7.90;99.90;;;;;;4974894;28;20513;-53
2022/01/24 02:40:42;;;;;;;26.53;8.17;;;-7.90;99.90;;;;;;4974376;28;20423;-52
2022/01/24 02:48:47;;;;;;;18.13;7.63;;;-8.00;99.90;;;;;;4921512;28;20497;-56
2022/01/24 02:51:30;;;;;;;26.60;9.63;;;-8.00;99.90;;;;;;4974529;28;20418;-52
2022/01/24 02:53:56;;;;;;;27.30;9.13;;;-8.00;99.90;;;;;;4973818;28;20299;-55
2022/01/24 02:56:22;;;;;;;17.17;7.73;;;-8.00;99.90;;;;;;4974636;28;20430;-52
2022/01/24 02:58:47;;;;;;;26.87;9.70;;;-8.10;99.90;;;;;;4974084;28;20185;-50
2022/01/24 03:01:13;;;;;;;30.00;10.53;;;-8.20;99.90;;;;;;4974443;28;20181;-50
2022/01/24 03:03:40;;;;;;;29.67;10.13;;;-8.30;99.90;;;;;;4974159;28;20235;-55
2022/01/24 03:06:06;;;;;;;17.53;7.70;;;-8.30;99.90;;;;;;4974323;28;20173;-54
2022/01/24 03:08:32;;;;;;;22.43;8.03;;;-8.40;99.90;;;;;;4956818;28;20930;-53
2022/01/24 03:10:59;;;;;;;29.60;10.13;;;-8.40;99.90;;;;;;4974060;28;20422;-52
2022/01/24 03:15:53;;;;;;;28.53;10.83;;;-8.60;99.90;;;;;;4993429;28;20437;-52
2022/01/24 03:18:20;;;;;;;28.17;9.87;;;-8.70;99.90;;;;;;4993365;28;20176;-49
2022/01/24 03:20:46;;;;;;;28.60;10.67;;;-8.70;99.90;;;;;;4993360;28;20414;-51
2022/01/24 03:23:13;;;;;;;15.57;6.07;;;-8.80;99.90;;;;;;4975562;28;20469;-53
2022/01/24 03:25:40;;;;;;;27.53;11.17;;;-8.80;99.90;;;;;;4993086;28;20406;-52
2022/01/24 03:28:06;;;;;;;27.20;10.20;;;-8.80;99.90;;;;;;4993094;28;20527;-52
2022/01/24 03:30:33;;;;;;;22.83;9.80;;;-8.90;99.90;;;;;;4992645;28;20868;-54
2022/01/24 03:32:59;;;;;;;28.27;10.27;;;-8.90;99.90;;;;;;4993247;28;20190;-51
2022/01/24 03:35:25;;;;;;;27.37;9.13;;;-8.90;99.90;;;;;;4993246;28;20414;-52
2022/01/24 03:37:50;;;;;;;29.53;10.07;;;-8.90;99.90;;;;;;4992951;28;20184;-54
2022/01/24 03:40:16;;;;;;;23.57;9.20;;;-9.00;99.90;;;;;;4992911;28;20728;-54
2022/01/24 03:42:42;;;;;;;156.63;21.23;;;-9.00;99.90;;;;;;4992630;28;20204;-53
2022/01/24 03:45:10;;;;;;;26.07;9.67;;;-8.90;99.90;;;;;;4992821;28;20187;-53
2022/01/24 03:50:08;;;;;;;22.00;8.77;;;-8.80;99.90;;;;;;4975308;28;20464;-53
2022/01/24 03:52:34;;;;;;;30.00;10.47;;;-8.80;99.90;;;;;;4992601;28;20739;-53
2022/01/24 03:55:03;;;;;;;17.00;6.37;;;-8.80;99.90;;;;;;5007452;28;20524;-53
2022/01/24 03:57:29;;;;;;;19.30;6.97;;;-8.80;99.90;;;;;;5012177;28;20414;-52
2022/01/24 03:59:55;;;;;;;28.60;11.03;;;-8.80;99.90;;;;;;5012242;28;20460;-52
2022/01/24 04:02:23;;;;;;;23.13;9.33;;;-8.80;99.90;;;;;;5012386;28;20358;-50
2022/01/24 04:04:50;;;;;;;25.33;9.27;;;-8.90;99.90;;;;;;5012225;28;20405;-52
2022/01/24 04:07:16;;;;;;;24.00;8.07;;;-8.90;99.90;;;;;;5012178;28;20416;-52
2022/01/24 04:09:42;;;;;;;22.57;9.43;;;-9.00;99.90;;;;;;5011981;28;20407;-55
2022/01/24 04:12:10;;;;;;;16.67;5.97;;;-9.00;99.90;;;;;;5012085;28;20409;-53
2022/01/24 04:14:41;;;;;;;20.17;8.83;;;-9.00;99.90;;;;;;5011730;28;20428;-51
2022/01/24 04:22:01;;;;;;;22.23;9.53;;;-9.00;99.90;;;;;;5012021;28;20422;-52
2022/01/24 04:24:27;;;;;;;18.30;7.73;;;-9.00;99.90;;;;;;5011963;28;20477;-54
2022/01/24 04:26:53;;;;;;;21.73;8.30;;;-9.00;99.90;;;;;;5011615;28;20530;-53
2022/01/24 04:29:18;;;;;;;16.80;7.00;;;-9.00;99.90;;;;;;5011953;28;20420;-50
2022/01/24 04:31:45;;;;;;;26.93;9.33;;;-9.10;99.90;;;;;;5011566;28;20259;-50
2022/01/24 04:34:11;;;;;;;30.13;11.90;;;-9.10;99.90;;;;;;5011921;28;20187;-53
2022/01/24 04:36:37;;;;;;;24.63;8.53;;;-9.10;99.90;;;;;;5011349;28;20408;-54
2022/01/24 04:39:04;;;;;;;22.23;8.83;;;-9.00;99.90;;;;;;5011879;28;20416;-59
2022/01/24 04:41:35;;;;;;;15.30;6.27;;;-9.00;99.90;;;;;;5011600;28;20243;-54
2022/01/24 04:46:59;;;;;;;22.43;9.20;;;-8.90;99.90;;;;;;5011610;28;20470;-53
2022/01/24 04:52:31;;;;;;;20.30;8.77;;;-8.80;99.90;;;;;;5012068;28;20440;-52
2022/01/24 04:54:56;;;;;;;21.50;8.50;;;-8.80;99.90;;;;;;4997031;28;20552;-51
2022/01/24 04:57:24;;;;;;;20.83;7.63;;;-8.70;99.90;;;;;;5011600;28;20465;-53
2022/01/24 04:59:52;;;;;;;22.83;7.73;;;-8.70;99.90;;;;;;5011585;28;20196;-50
2022/01/24 05:02:20;;;;;;;28.87;11.33;;;-8.70;99.90;;;;;;5011444;28;20460;-52
2022/01/24 05:04:46;;;;;;;23.83;9.07;;;-8.60;99.90;;;;;;5011604;28;20749;-54
2022/01/24 05:07:12;;;;;;;19.17;8.30;;;-8.60;99.90;;;;;;5011295;28;20585;-54
2022/01/24 05:23:33;;;;;;;17.90;7.07;;;-8.50;99.90;;;;;;5015529;28;20481;-53
2022/01/24 05:26:01;;;;;;;26.43;10.00;;;-8.50;99.90;;;;;;5015138;28;20408;-56
2022/01/24 05:28:28;;;;;;;33.97;11.10;;;-8.50;99.90;;;;;;5015096;28;20500;-53
2022/01/24 05:30:54;;;;;;;22.97;9.00;;;-8.50;99.90;;;;;;5014938;28;20408;-54
2022/01/24 05:33:20;;;;;;;23.73;9.20;;;-8.40;99.90;;;;;;5015013;28;20423;-57
2022/01/24 05:35:46;;;;;;;30.80;11.07;;;-8.40;99.90;;;;;;5014543;28;20179;-52
2022/01/24 05:38:11;;;;;;;24.77;9.63;;;-8.30;99.90;;;;;;5015074;28;20710;-55
2022/01/24 05:40:38;;;;;;;26.27;9.03;;;-8.30;99.90;;;;;;5014944;28;20180;-56
2022/01/24 05:43:03;;;;;;;27.70;10.60;;;-8.30;99.90;;;;;;5014918;28;20622;-53
2022/01/24 05:45:29;;;;;;;28.60;9.70;;;-8.30;99.90;;;;;;5015379;28;20902;-54
2022/01/24 05:47:55;;;;;;;21.70;9.07;;;-8.30;99.90;;;;;;5014436;28;20190;-54
2022/01/24 05:50:21;;;;;;;17.07;7.17;;;-8.30;99.90;;;;;;5014806;28;20179;-54
2022/01/24 05:52:47;;;;;;;23.23;8.87;;;-8.30;99.90;;;;;;5014504;28;20478;-54
2022/01/24 05:55:12;;;;;;;28.83;9.90;;;-8.30;99.90;;;;;;5014886;28;20230;-53
2022/01/24 05:57:38;;;;;;;21.47;8.10;;;-8.30;99.90;;;;;;5014553;28;20187;-50
2022/01/24 06:00:10;;;;;;;22.80;10.53;;;-8.40;99.90;;;;;;4997199;28;20190;-53
2022/01/24 06:02:36;;;;;;;18.03;7.20;;;-8.40;99.90;;;;;;5014043;28;20710;-59
2022/01/24 06:05:02;;;;;;;23.13;6.60;;;-8.40;99.90;;;;;;5014531;28;20405;-52
2022/01/24 06:07:28;;;;;;;20.37;7.07;;;-8.40;99.90;;;;;;5014684;28;20174;-52
2022/01/24 06:09:54;;;;;;;30.20;11.33;;;-8.40;99.90;;;;;;5014331;28;20778;-53
2022/01/24 06:12:19;;;;;;;18.60;7.50;;;-8.50;99.90;;;;;;5014222;28;20191;-54
2022/01/24 06:14:45;;;;;;;23.97;10.47;;;-8.40;99.90;;;;;;5014202;28;20247;-54
2022/01/24 06:17:11;;;;;;;25.40;10.30;;;-8.40;99.90;;;;;;4996319;28;20195;-57
2022/01/24 06:19:37;;;;;;;24.37;9.13;;;-8.30;99.90;;;;;;5013937;28;20735;-56
2022/01/24 06:22:04;;;;;;;27.53;9.47;;;-8.30;99.90;;;;;;5013749;28;20184;-54
2022/01/24 06:24:29;;;;;;;26.37;9.80;;;-8.30;99.90;;;;;;5014099;28;20406;-55
2022/01/24 06:26:55;;;;;;;15.67;6.43;;;-8.30;99.90;;;;;;5013043;28;20487;-52
2022/01/24 06:29:21;;;;;;;24.10;9.83;;;-8.30;99.90;;;;;;5013584;28;20207;-52
2022/01/24 06:31:47;;;;;;;19.00;8.27;;;-8.30;99.90;;;;;;4995687;28;20521;-52
2022/01/24 06:34:12;;;;;;;23.80;10.00;;;-8.30;99.90;;;;;;4995700;28;20704;-50
2022/01/24 06:36:38;;;;;;;23.07;9.70;;;-8.20;99.90;;;;;;5013884;28;20218;-51
2022/01/24 06:39:05;;;;;;;26.10;9.77;;;-8.20;99.90;;;;;;5013407;28;20626;-54
2022/01/24 06:41:34;;;;;;;22.13;9.77;;;-8.10;99.90;;;;;;5013143;28;20523;-55
2022/01/24 06:44:01;;;;;;;33.10;12.17;;;-8.00;99.90;;;;;;5012814;28;20927;-56
2022/01/24 06:46:27;;;;;;;30.67;10.57;;;-8.10;99.90;;;;;;4994993;28;20440;-54
2022/01/24 06:48:52;;;;;;;26.43;10.23;;;-8.00;99.90;;;;;;5012764;28;20904;-54
2022/01/24 06:51:19;;;;;;;32.90;12.43;;;-8.00;99.90;;;;;;5013049;28;20176;-54
2022/01/24 06:53:46;;;;;;;24.53;11.00;;;-8.00;99.90;;;;;;5012841;28;20321;-51
2022/01/24 06:56:12;;;;;;;35.67;17.27;;;-7.90;99.90;;;;;;5013068;28;20416;-53
2022/01/24 06:58:38;;;;;;;39.37;13.57;;;-7.90;99.90;;;;;;5012975;28;20959;-56
2022/01/24 07:01:04;;;;;;;28.67;9.60;;;-7.80;99.90;;;;;;5012756;28;20589;-57
2022/01/24 07:03:30;;;;;;;23.73;9.50;;;-7.80;99.90;;;;;;5013097;28;20234;-54
2022/01/24 07:05:56;;;;;;;31.00;11.97;;;-7.70;99.90;;;;;;5012906;28;20889;-58
2022/01/24 07:08:21;;;;;;;28.20;12.17;;;-7.60;99.90;;;;;;5012600;28;20179;-55
2022/01/24 07:10:47;;;;;;;26.50;10.30;;;-7.60;99.90;;;;;;5012717;28;20584;-55
2022/01/24 07:13:13;;;;;;;29.27;11.93;;;-7.50;99.90;;;;;;4995202;28;20643;-56
2022/01/24 07:15:52;;;;;;;33.80;12.90;;;-7.60;99.90;;;;;;5012714;28;20214;-55
2022/01/24 07:20:57;;;;;;;28.70;11.83;;;-7.50;99.90;;;;;;5012335;28;20455;-53
2022/01/24 07:23:23;;;;;;;27.00;11.20;;;-7.50;99.90;;;;;;5012141;28;20484;-53
2022/01/24 07:25:49;;;;;;;31.23;13.37;;;-7.40;99.90;;;;;;5012426;28;20401;-57
2022/01/24 07:28:16;;;;;;;29.37;11.00;;;-7.30;99.90;;;;;;5012326;28;20401;-52
2022/01/24 07:30:42;;;;;;;22.40;9.90;;;-7.20;99.90;;;;;;5012353;28;20187;-56
2022/01/24 07:33:08;;;;;;;26.30;11.97;;;-7.20;99.90;;;;;;5012607;28;20401;-53
2022/01/24 07:35:34;;;;;;;29.47;12.27;;;-7.20;99.90;;;;;;5012298;28;20963;-55
2022/01/24 07:38:00;;;;;;;26.93;10.33;;;-7.20;99.90;;;;;;5012061;28;20207;-56
2022/01/24 07:40:26;;;;;;;25.37;10.17;;;-7.10;99.90;;;;;;4994574;28;20909;-53
2022/01/24 07:45:19;;;;;;;29.63;10.60;;;-7.20;99.90;;;;;;5012352;28;20405;-56
2022/01/24 07:47:49;;;;;;;35.00;12.77;;;-7.20;99.90;;;;;;5012066;28;20643;-51
2022/01/24 07:50:20;;;;;;;24.80;11.20;;;-7.10;99.90;;;;;;5012102;28;20531;-56
2022/01/24 07:52:46;;;;;;;20.33;9.87;;;-7.10;99.90;;;;;;5011737;28;20506;-52
2022/01/24 07:55:12;;;;;;;30.20;10.33;;;-6.90;99.90;;;;;;4995555;28;20522;-55
2022/01/24 07:57:38;;;;;;;32.53;13.13;;;-7.00;99.90;;;;;;4992528;28;20247;-54
2022/01/24 08:00:06;;;;;;;23.43;10.80;;;-7.00;99.90;;;;;;4991838;28;20191;-55
2022/01/24 08:02:33;;;;;;;29.42;11.82;;;-7.00;99.90;;;;;;4991876;28;20430;-53
2022/01/24 08:04:59;;;;;;;31.10;10.87;;;-7.00;99.90;;;;;;4992057;28;20191;-54
2022/01/24 08:07:25;;;;;;;28.37;11.60;;;-6.90;99.90;;;;;;4992207;28;20414;-50
2022/01/24 08:09:50;;;;;;;20.83;10.23;;;-6.80;99.90;;;;;;4991903;28;20680;-58
2022/01/24 08:12:17;;;;;;;22.07;9.00;;;-6.80;99.90;;;;;;4992795;28;20221;-58
2022/01/24 08:14:44;;;;;;;30.17;12.33;;;-6.90;99.90;;;;;;4992047;28;20230;-57
2022/01/24 08:17:09;;;;;;;26.00;10.93;;;-6.90;99.90;;;;;;4975075;28;20433;-54
2022/01/24 08:19:35;;;;;;;23.77;9.37;;;-6.90;99.90;;;;;;4992081;28;20456;-54
2022/01/24 08:22:01;;;;;;;24.40;10.23;;;-6.90;99.90;;;;;;4974072;28;20715;-53
2022/01/24 08:24:27;;;;;;;25.63;9.77;;;-6.90;99.90;;;;;;4991915;28;20581;-53
2022/01/24 08:26:54;;;;;;;23.43;9.70;;;-6.90;99.90;;;;;;4991713;28;20554;-53
2022/01/24 08:29:19;;;;;;;31.57;12.73;;;-6.80;99.90;;;;;;4992267;28;20410;-54
2022/01/24 08:31:45;;;;;;;27.17;11.17;;;-6.80;99.90;;;;;;4991837;28;20421;-53
2022/01/24 08:34:11;;;;;;;24.17;10.50;;;-6.60;99.90;;;;;;4974538;28;20199;-55
2022/01/24 08:36:37;;;;;;;25.17;7.87;;;-6.60;99.90;;;;;;4991560;28;20207;-56
2022/01/24 08:39:08;;;;;;;24.10;10.00;;;-6.60;99.90;;;;;;4991639;28;20549;-55
2022/01/24 08:47:05;;;;;;;18.43;9.47;;;-6.80;99.90;;;;;;4992026;28;20416;-55
2022/01/24 08:49:31;;;;;;;21.83;10.13;;;-6.90;99.90;;;;;;4991578;28;20765;-53
2022/01/24 08:51:58;;;;;;;21.27;9.03;;;-6.90;99.90;;;;;;4994499;28;20196;-54
2022/01/24 08:54:25;;;;;;;18.57;8.23;;;-6.80;99.90;;;;;;5005726;28;20266;-54
2022/01/24 08:56:50;;;;;;;18.33;8.67;;;-6.70;99.90;;;;;;5015436;28;20411;-53
2022/01/24 08:59:16;;;;;;;19.10;6.73;;;-6.40;99.90;;;;;;5015025;28;20180;-53
2022/01/24 09:01:43;;;;;;;21.27;7.70;;;-6.20;99.90;;;;;;4997059;28;20210;-52
2022/01/24 09:04:09;;;;;;;22.97;9.70;;;-6.30;99.90;;;;;;5015096;28;20207;-56
2022/01/24 09:06:35;;;;;;;17.17;7.53;;;-6.20;99.90;;;;;;4997792;28;20183;-54
2022/01/24 09:09:04;;;;;;;20.53;9.30;;;-6.30;99.90;;;;;;5014769;28;20832;-55
2022/01/24 09:11:35;;;;;;;30.57;11.60;;;-6.50;99.90;;;;;;5015224;28;20190;-51
2022/01/24 09:14:03;;;;;;;29.27;8.87;;;-6.40;99.90;;;;;;5014805;28;20293;-53
2022/01/24 09:16:29;;;;;;;24.17;9.27;;;-6.20;99.90;;;;;;5014879;28;20405;-56
2022/01/24 09:18:55;;;;;;;21.80;6.43;;;-6.10;99.90;;;;;;5014907;28;20266;-56
2022/01/24 09:21:21;;;;;;;17.33;7.00;;;-6.30;99.90;;;;;;5014802;28;20278;-56
2022/01/24 09:23:47;;;;;;;19.60;7.53;;;-6.40;99.90;;;;;;5014302;28;20557;-57
2022/01/24 09:26:13;;;;;;;18.47;8.67;;;-6.40;99.90;;;;;;5015094;28;20467;-56
2022/01/24 09:28:39;;;;;;;25.70;9.10;;;-6.30;99.90;;;;;;5014784;28;20187;-51
2022/01/24 09:31:05;;;;;;;34.97;13.10;;;-6.30;99.90;;;;;;5013893;28;20171;-53
2022/01/24 09:33:32;;;;;;;27.90;11.67;;;-6.30;99.90;;;;;;5014735;28;20196;-55
2022/01/24 09:36:01;;;;;;;23.13;9.83;;;-6.40;99.90;;;;;;5014378;28;20183;-53
2022/01/24 09:38:30;;;;;;;20.43;8.77;;;-6.40;99.90;;;;;;5014196;28;20546;-54
2022/01/24 09:41:04;;;;;;;12.47;6.60;;;-6.50;99.90;;;;;;5013890;28;20946;-56
2022/01/24 09:43:31;;;;;;;27.80;8.53;;;-6.40;99.90;;;;;;5014173;28;20213;-55
2022/01/24 09:46:00;;;;;;;55.03;13.10;;;-6.50;99.90;;;;;;5014348;28;20480;-53
2022/01/24 09:48:28;;;;;;;49.30;9.33;;;-6.50;99.90;;;;;;4996754;28;20191;-56
2022/01/24 09:50:54;;;;;;;16.20;7.30;;;-6.50;99.90;;;;;;4996524;28;20409;-52
2022/01/24 09:53:21;;;;;;;53.63;11.53;;;-6.50;99.90;;;;;;5012611;28;20474;-53
2022/01/24 09:55:47;;;;;;;29.60;10.03;;;-6.40;99.90;;;;;;4994629;28;20172;-54
2022/01/24 09:58:13;;;;;;;22.43;9.27;;;-6.50;99.90;;;;;;4994018;28;20184;-55
2022/01/24 10:00:39;;;;;;;25.60;7.50;;;-6.50;99.90;;;;;;4994578;28;20406;-53
2022/01/24 10:03:08;;;;;;;18.53;8.63;;;-6.50;99.90;;;;;;4976240;28;20226;-56
2022/01/24 10:05:39;;;;;;;15.73;8.07;;;-6.40;99.90;;;;;;4994338;28;20556;-52
2022/01/24 10:08:14;;;;;;;25.60;9.43;;;-6.30;99.90;;;;;;4976837;28;20752;-56
2022/01/24 10:10:54;;;;;;;25.17;9.73;;;-6.40;99.90;;;;;;4994105;28;20568;-54
2022/01/24 10:16:26;;;;;;;25.13;10.30;;;-6.40;99.90;;;;;;4994623;28;20409;-52
2022/01/24 10:18:58;;;;;;;23.87;8.97;;;-6.30;99.90;;;;;;4993950;28;20184;-55
2022/01/24 10:21:24;;;;;;;31.10;11.00;;;-6.10;99.90;;;;;;4994249;28;20203;-54
2022/01/24 10:23:50;;;;;;;20.57;7.70;;;-6.20;99.90;;;;;;4994080;28;20219;-65
2022/01/24 10:26:16;;;;;;;17.30;7.47;;;-6.20;99.90;;;;;;4994388;28;20644;-55
2022/01/24 10:28:44;;;;;;;22.27;9.20;;;-6.30;99.90;;;;;;4994433;28;20184;-55
2022/01/24 10:31:10;;;;;;;25.10;9.90;;;-6.20;99.90;;;;;;4993926;28;20224;-56
2022/01/24 10:34:05;;;;;;;21.50;9.87;;;-6.20;99.90;;;;;;4994023;28;20278;-52
2022/01/24 10:36:41;;;;;;;21.87;8.50;;;-6.20;99.90;;;;;;4993784;28;20254;-57
2022/01/24 10:45:23;;;;;;;20.53;8.30;;;-6.30;99.90;;;;;;4993257;28;20320;-53
2022/01/24 10:47:52;;;;;;;19.80;7.80;;;-6.30;99.90;;;;;;4973604;28;20199;-55
2022/01/24 10:50:27;;;;;;;19.60;8.37;;;-6.40;99.90;;;;;;4993316;28;20188;-56
2022/01/24 10:52:53;;;;;;;22.93;10.03;;;-6.30;99.90;;;;;;4993618;28;20489;-58
2022/01/24 10:55:21;;;;;;;14.23;6.83;;;-6.20;99.90;;;;;;4992613;28;20479;-55
2022/01/24 10:57:49;;;;;;;20.13;8.83;;;-6.20;99.90;;;;;;5013216;28;20257;-56
2022/01/24 11:00:23;;;;;;;21.37;8.40;;;-6.20;99.90;;;;;;5012961;28;20184;-54
2022/01/24 11:02:52;;;;;;;12.80;6.53;;;-6.20;99.90;;;;;;5013059;28;20277;-55
2022/01/24 11:05:24;;;;;;;18.50;8.43;;;-6.10;99.90;;;;;;4995615;28;20250;-54
2022/01/24 11:08:10;;;;;;;17.40;6.60;;;-6.00;99.90;;;;;;5012671;28;20172;-55
2022/01/24 11:10:39;;;;;;;12.10;6.33;;;-6.10;99.90;;;;;;5012533;28;20184;-55
2022/01/24 11:13:06;;;;;;;12.33;5.63;;;-6.00;99.90;;;;;;5012131;28;20187;-56
2022/01/24 11:15:34;;;;;;;12.37;6.03;;;-6.00;99.90;;;;;;5012637;28;20188;-55
2022/01/24 11:18:01;;;;;;;17.37;4.93;;;-6.00;99.90;;;;;;5012306;28;20183;-55
2022/01/24 11:20:31;;;;;;;14.47;6.17;;;-6.10;99.90;;;;;;5012529;28;20238;-55
2022/01/24 11:23:01;;;;;;;20.43;9.20;;;-6.00;99.90;;;;;;5012133;28;20266;-53
2022/01/24 11:25:33;;;;;;;21.23;9.70;;;-5.70;99.90;;;;;;4994524;28;20183;-54
2022/01/24 11:27:59;;;;;;;19.03;7.73;;;-5.60;99.90;;;;;;5011746;28;20183;-54
2022/01/24 11:30:44;;;;;;;17.00;7.67;;;-5.70;99.90;;;;;;5012466;28;20184;-52
2022/01/24 11:33:14;;;;;;;16.57;6.23;;;-5.60;99.90;;;;;;5012317;28;20265;-51
2022/01/24 11:35:50;;;;;;;19.17;6.93;;;-5.40;99.90;;;;;;5012245;28;20246;-50
2022/01/24 11:38:31;;;;;;;19.90;8.23;;;-5.30;99.90;;;;;;5011891;28;20190;-56
2022/01/24 11:41:07;;;;;;;20.53;9.90;;;-5.40;99.90;;;;;;5011830;28;20198;-54
2022/01/24 11:43:40;;;;;;;17.03;7.20;;;-5.60;99.90;;;;;;5012140;28;20238;-51
2022/01/24 11:46:45;;;;;;;26.20;10.23;;;-5.50;99.90;;;;;;5011890;28;20245;-55
2022/01/24 11:49:27;;;;;;;17.70;7.03;;;-5.60;99.90;;;;;;5011744;28;20184;-56
2022/01/24 11:52:14;;;;;;;12.07;5.50;;;-5.70;99.90;;;;;;5012132;28;20186;-54
2022/01/24 11:54:55;;;;;;;14.03;6.83;;;-5.70;99.90;;;;;;5011627;28;20239;-55
2022/01/24 11:57:36;;;;;;;23.70;9.93;;;-5.80;99.90;;;;;;5011904;28;20514;-51
2022/01/24 12:00:04;;;;;;;20.53;7.97;;;-5.80;99.90;;;;;;5011236;28;20214;-56
2022/01/24 12:02:41;;;;;;;19.43;8.17;;;-5.60;99.90;;;;;;5011469;28;20234;-56
2022/01/24 12:05:20;;;;;;;20.67;8.53;;;-5.50;99.90;;;;;;5011264;28;20179;-53
2022/01/24 12:07:50;;;;;;;20.13;8.10;;;-5.40;99.90;;;;;;5011685;28;20183;-55
2022/01/24 12:10:26;;;;;;;16.53;8.67;;;-5.40;99.90;;;;;;5011376;28;20701;-54
2022/01/24 12:13:03;;;;;;;17.37;7.17;;;-5.20;99.90;;;;;;5011435;28;20189;-53
2022/01/24 12:15:38;;;;;;;24.93;8.67;;;-4.90;99.90;;;;;;4972682;28;20667;-56
2022/01/24 12:18:04;;;;;;;18.83;9.63;;;-4.70;99.90;;;;;;4972800;28;20594;-56
2022/01/24 12:20:30;;;;;;;20.17;6.70;;;-4.40;99.90;;;;;;4973319;28;20216;-53
2022/01/24 12:23:19;;;;;;;16.63;7.53;;;-4.90;99.90;;;;;;4972440;28;20252;-50
2022/01/24 12:26:05;;;;;;;16.60;6.93;;;-5.00;99.90;;;;;;4971993;28;20200;-69
2022/01/24 12:28:33;;;;;;;17.93;7.07;;;-4.20;99.90;;;;;;4972720;28;20194;-52
2022/01/24 12:31:07;;;;;;;15.37;7.40;;;-3.20;99.90;;;;;;4972052;28;20235;-54
2022/01/24 12:33:36;;;;;;;15.13;6.27;;;-3.00;99.90;;;;;;4972397;28;20180;-51
2022/01/24 12:36:05;;;;;;;16.87;7.37;;;-3.00;99.90;;;;;;4972038;28;20188;-54
2022/01/24 12:38:40;;;;;;;36.07;8.57;;;-2.60;99.90;;;;;;4972038;28;20263;-58
2022/01/24 12:41:21;;;;;;;10.47;5.40;;;-2.10;99.90;;;;;;4972083;28;20617;-55
2022/01/24 12:46:24;;;;;;;23.53;8.23;;;-2.80;99.10;;;;;;4971882;28;20645;-55
2022/01/24 12:48:50;;;;;;;23.17;7.77;;;-3.70;99.90;;;;;;4972354;28;20181;-55
2022/01/24 12:51:18;;;;;;;16.50;7.20;;;-4.20;99.90;;;;;;4971733;28;20251;-57
2022/01/24 12:53:44;;;;;;;22.60;8.50;;;-4.70;99.90;;;;;;4976897;28;20694;-52
2022/01/24 12:56:12;;;;;;;19.33;6.87;;;-4.80;99.90;;;;;;4991065;28;20180;-54
2022/01/24 12:58:44;;;;;;;20.13;7.87;;;-5.20;99.90;;;;;;4974387;28;20184;-49
2022/01/24 13:01:26;;;;;;;25.37;9.10;;;-5.50;99.90;;;;;;4991446;28;20692;-56
2022/01/24 13:04:02;;;;;;;18.70;7.87;;;-5.70;99.90;;;;;;4991539;28;20339;-54
2022/01/24 13:06:33;;;;;;;24.53;8.23;;;-5.80;99.90;;;;;;4991811;28;20191;-55
2022/01/24 13:09:02;;;;;;;21.83;8.77;;;-6.00;99.90;;;;;;4991609;28;20327;-65
2022/01/24 13:11:30;;;;;;;20.00;8.57;;;-6.00;99.90;;;;;;4991413;28;20199;-53
2022/01/24 13:14:14;;;;;;;24.87;7.97;;;-6.20;99.90;;;;;;4981286;28;20195;-56
2022/01/24 13:25:26;;;;;;;13.97;5.13;;;-6.50;99.90;;;;;;5010817;28;20431;-54
2022/01/24 13:27:52;;;;;;;17.77;6.57;;;-6.50;99.90;;;;;;5010646;28;20239;-55
2022/01/24 13:30:23;;;;;;;23.10;9.10;;;-6.70;99.90;;;;;;5010350;28;20190;-56
2022/01/24 13:33:04;;;;;;;17.47;7.33;;;-6.70;99.90;;;;;;5010687;28;20179;-51
2022/01/24 13:35:31;;;;;;;16.53;7.23;;;-6.60;99.90;;;;;;5011027;28;20183;-51
2022/01/24 13:38:19;;;;;;;28.13;10.13;;;-6.50;99.90;;;;;;5013446;28;20188;-51
2022/01/24 13:41:04;;;;;;;20.60;7.50;;;-6.40;99.90;;;;;;5014138;28;20428;-53
2022/01/24 13:43:31;;;;;;;29.20;11.57;;;-6.30;99.90;;;;;;4996221;28;20215;-55
2022/01/24 13:45:58;;;;;;;28.97;9.53;;;-5.00;99.90;;;;;;5014393;28;20180;-57
2022/01/24 13:48:25;;;;;;;28.50;10.40;;;-3.20;99.90;;;;;;5014091;28;20196;-55
2022/01/24 13:50:58;;;;;;;19.00;7.80;;;-2.10;99.90;;;;;;5014625;28;20661;-54
2022/01/24 13:53:33;;;;;;;20.47;8.37;;;-1.10;99.10;;;;;;5013816;28;20630;-54
2022/01/24 13:56:01;;;;;;;17.70;8.27;;;-0.80;97.90;;;;;;5014049;28;20269;-51
2022/01/24 13:58:27;;;;;;;19.30;9.10;;;-0.90;96.20;;;;;;5013770;28;20293;-53
2022/01/24 14:01:00;;;;;;;18.50;8.90;;;-0.90;96.00;;;;;;5014699;28;20211;-54
2022/01/24 14:03:26;;;;;;;22.10;8.70;;;-0.80;95.70;;;;;;5013953;28;20243;-53
2022/01/24 14:06:11;;;;;;;23.23;8.67;;;-0.80;95.30;;;;;;5014138;28;20183;-55
2022/01/24 14:08:37;;;;;;;19.13;8.93;;;-0.80;95.50;;;;;;5014160;28;20182;-54
2022/01/24 14:11:15;;;;;;;19.93;9.10;;;-1.00;94.90;;;;;;4995691;28;20270;-60
2022/01/24 14:13:48;;;;;;;18.90;8.77;;;-1.00;96.20;;;;;;5013328;28;20194;-50
2022/01/24 14:19:06;;;;;;;19.43;9.10;;;-1.50;95.00;;;;;;5013089;28;20180;-54
2022/01/24 14:21:32;;;;;;;24.43;9.23;;;-2.70;95.90;;;;;;5013590;28;20211;-54
2022/01/24 14:24:00;;;;;;;18.80;8.27;;;-3.80;98.40;;;;;;5013499;28;20269;-56
2022/01/24 14:26:28;;;;;;;18.13;7.93;;;-4.70;99.90;;;;;;5013274;28;20706;-54
2022/01/24 14:29:16;;;;;;;19.87;7.33;;;-5.60;99.90;;;;;;5013316;28;20217;-55
2022/01/24 14:31:45;;;;;;;21.97;8.03;;;-6.00;99.90;;;;;;5013224;28;20179;-56
2022/01/24 14:34:16;;;;;;;19.20;7.60;;;-6.50;99.90;;;;;;5013210;28;20524;-54
2022/01/24 14:36:52;;;;;;;20.50;8.80;;;-6.70;99.90;;;;;;5013169;28;20203;-55
2022/01/24 14:39:22;;;;;;;17.07;6.40;;;-6.90;99.90;;;;;;5013556;28;20214;-54
2022/01/24 14:41:49;;;;;;;20.97;7.27;;;-7.10;99.90;;;;;;5013339;28;20488;-54
2022/01/24 14:47:03;;;;;;;14.70;6.60;;;-7.50;99.90;;;;;;5013681;28;20412;-51
2022/01/24 14:49:33;;;;;;;20.90;8.73;;;-7.60;99.90;;;;;;4994119;28;20413;-54
2022/01/24 14:52:04;;;;;;;28.43;11.37;;;-7.70;99.90;;;;;;5012974;28;20495;-54
2022/01/24 14:54:32;;;;;;;26.33;8.37;;;-7.70;99.90;;;;;;4995731;28;20980;-55
2022/01/24 14:57:01;;;;;;;21.93;8.97;;;-7.90;99.90;;;;;;5013235;28;20436;-53
2022/01/24 14:59:28;;;;;;;23.93;9.27;;;-8.00;99.90;;;;;;5013163;28;20905;-56